createdAt,value
2022-11-03T00:02:20.604Z,8.85
2022-11-03T00:04:48.428Z,8.84
2022-11-03T00:07:22.649Z,8.82
2022-11-03T00:09:50.312Z,8.78
2022-11-03T00:12:20.283Z,8.75
2022-11-03T00:14:47.832Z,8.72
2022-11-03T00:17:15.474Z,8.68
2022-11-03T00:19:43.055Z,8.62
2022-11-03T00:22:10.689Z,8.56
2022-11-03T00:24:38.253Z,8.51
2022-11-03T00:27:06.957Z,8.45
2022-11-03T00:29:34.971Z,8.39
2022-11-03T00:32:02.455Z,8.33
2022-11-03T00:34:30.004Z,8.28
2022-11-03T00:37:03.583Z,8.23
2022-11-03T00:39:31.192Z,8.18
2022-11-03T00:41:58.887Z,8.14
2022-11-03T00:44:26.909Z,8.11
2022-11-03T00:46:54.636Z,8.08
2022-11-03T00:49:22.201Z,8.06
2022-11-03T00:51:49.998Z,8.03
2022-11-03T00:54:17.772Z,8.00
2022-11-03T00:56:45.551Z,7.97
2022-11-03T00:59:13.206Z,7.94
2022-11-03T01:01:47.104Z,7.91
2022-11-03T01:04:36.082Z,7.89
2022-11-03T01:07:05.978Z,7.86
2022-11-03T01:09:40.669Z,7.85
2022-11-03T01:12:30.569Z,7.84
2022-11-03T01:14:58.219Z,7.83
2022-11-03T01:17:27.984Z,7.82
2022-11-03T01:19:55.844Z,7.81
2022-11-03T01:22:24.820Z,7.82
2022-11-03T01:24:52.587Z,7.82
2022-11-03T01:27:25.133Z,7.81
2022-11-03T01:29:52.678Z,7.79
2022-11-03T01:32:20.274Z,7.78
2022-11-03T01:34:47.883Z,7.75
2022-11-03T01:37:15.448Z,7.71
2022-11-03T01:39:43.068Z,7.67
2022-11-03T01:42:13.852Z,7.63
2022-11-03T01:44:47.667Z,7.59
2022-11-03T01:47:21.992Z,7.56
2022-11-03T01:50:18.328Z,7.52
2022-11-03T01:52:57.890Z,7.48
2022-11-03T01:55:31.890Z,7.44
2022-11-03T01:58:15.952Z,7.41
2022-11-03T02:00:47.050Z,7.38
2022-11-03T02:03:16.281Z,7.35
2022-11-03T02:05:49.491Z,7.32
2022-11-03T02:08:25.582Z,7.28
2022-11-03T02:10:53.400Z,7.25
2022-11-03T02:13:25.642Z,7.22
2022-11-03T02:15:59.873Z,7.19
2022-11-03T02:18:33.998Z,7.16
2022-11-03T02:21:42.484Z,7.11
2022-11-03T02:24:23.899Z,7.04
2022-11-03T02:26:55.746Z,6.99
2022-11-03T02:29:24.403Z,6.95
2022-11-03T02:32:07.741Z,6.93
2022-11-03T02:34:55.594Z,6.88
2022-11-03T02:37:29.393Z,6.83
2022-11-03T02:40:24.998Z,6.78
2022-11-03T02:42:53.529Z,6.73
2022-11-03T02:45:25.837Z,6.70
2022-11-03T02:48:01.312Z,6.68
2022-11-03T02:50:32.060Z,6.65
2022-11-03T02:53:00.664Z,6.62
2022-11-03T02:55:52.881Z,6.60
2022-11-03T02:58:48.171Z,6.56
2022-11-03T03:01:27.540Z,6.52
2022-11-03T03:04:03.654Z,6.51
2022-11-03T03:06:37.415Z,6.51
2022-11-03T03:09:10.129Z,6.49
2022-11-03T03:11:42.911Z,6.46
2022-11-03T03:14:31.816Z,6.43
2022-11-03T03:17:25.436Z,6.38
2022-11-03T03:20:13.081Z,6.34
2022-11-03T03:23:21.422Z,6.28
2022-11-03T03:26:04.657Z,6.22
2022-11-03T03:28:40.224Z,6.18
2022-11-03T03:31:13.570Z,6.16
2022-11-03T03:33:46.680Z,6.15
2022-11-03T03:36:19.470Z,6.12
2022-11-03T03:39:00.099Z,6.04
2022-11-03T03:41:32.002Z,5.98
2022-11-03T03:44:05.519Z,5.95
2022-11-03T03:46:50.418Z,5.93
2022-11-03T03:49:18.536Z,5.94
2022-11-03T03:51:47.898Z,5.97
2022-11-03T03:54:15.511Z,5.99
2022-11-03T03:57:04.964Z,5.99
2022-11-03T03:59:32.588Z,5.96
2022-11-03T04:02:00.517Z,5.94
2022-11-03T04:04:28.501Z,5.92
2022-11-03T04:07:31.317Z,5.86
2022-11-03T04:09:58.976Z,5.77
2022-11-03T04:12:47.615Z,5.74
2022-11-03T04:15:34.080Z,5.69
2022-11-03T04:18:20.851Z,5.65
2022-11-03T04:21:07.022Z,5.66
2022-11-03T04:23:34.646Z,5.66
2022-11-03T04:26:09.856Z,5.63
2022-11-03T04:28:37.653Z,5.59
2022-11-03T04:31:10.692Z,5.56
2022-11-03T04:33:42.135Z,5.54
2022-11-03T04:36:27.519Z,5.51
2022-11-03T04:38:56.144Z,5.46
2022-11-03T04:41:29.183Z,5.45
2022-11-03T04:43:57.278Z,5.44
2022-11-03T04:46:30.542Z,5.44
2022-11-03T04:49:01.307Z,5.41
2022-11-03T04:51:34.276Z,5.36
2022-11-03T04:54:12.810Z,5.34
2022-11-03T04:56:40.595Z,5.35
2022-11-03T04:59:13.479Z,5.37
2022-11-03T05:01:43.369Z,5.34
2022-11-03T05:04:14.462Z,5.29
2022-11-03T05:06:51.969Z,5.24
2022-11-03T05:09:31.140Z,5.20
2022-11-03T05:11:58.879Z,5.19
2022-11-03T05:14:29.997Z,5.18
2022-11-03T05:17:02.303Z,5.15
2022-11-03T05:19:35.689Z,5.10
2022-11-03T05:22:08.565Z,5.07
2022-11-03T05:24:36.427Z,5.05
2022-11-03T05:27:12.678Z,5.04
2022-11-03T05:29:42.166Z,5.05
2022-11-03T05:32:25.711Z,5.07
2022-11-03T05:34:56.539Z,5.10
2022-11-03T05:37:30.727Z,5.12
2022-11-03T05:40:01.864Z,5.15
2022-11-03T05:42:32.026Z,5.17
2022-11-03T05:45:04.226Z,5.18
2022-11-03T05:47:39.568Z,5.16
2022-11-03T05:50:34.020Z,5.14
2022-11-03T05:53:31.860Z,5.14
2022-11-03T05:56:04.168Z,5.14
2022-11-03T05:58:42.750Z,5.16
2022-11-03T06:01:23.251Z,5.13
2022-11-03T06:03:51.179Z,5.08
2022-11-03T06:06:37.910Z,5.07
2022-11-03T06:09:18.237Z,5.08
2022-11-03T06:11:45.969Z,5.13
2022-11-03T06:14:27.727Z,5.19
2022-11-03T06:17:09.849Z,5.23
2022-11-03T06:19:47.692Z,5.26
2022-11-03T06:22:23.190Z,5.24
2022-11-03T06:24:58.483Z,5.18
2022-11-03T06:27:31.569Z,5.16
2022-11-03T06:30:29.358Z,5.17
2022-11-03T06:33:35.700Z,5.17
2022-11-03T06:36:18.119Z,5.19
2022-11-03T06:39:00.146Z,5.20
2022-11-03T06:41:35.492Z,5.18
2022-11-03T06:44:27.771Z,5.19
2022-11-03T06:47:01.083Z,5.20
2022-11-03T06:49:35.840Z,5.23
2022-11-03T06:52:39.466Z,5.27
2022-11-03T06:55:10.698Z,5.30
2022-11-03T06:57:48.723Z,5.32
2022-11-03T07:00:37.645Z,5.31
2022-11-03T07:03:27.525Z,5.29
2022-11-03T07:06:17.326Z,5.32
2022-11-03T07:08:49.455Z,5.37
2022-11-03T07:11:23.514Z,5.41
2022-11-03T07:14:30.239Z,5.37
2022-11-03T07:17:14.470Z,5.40
2022-11-03T07:19:45.833Z,5.49
2022-11-03T07:22:33.507Z,5.59
2022-11-03T07:25:03.449Z,5.69
2022-11-03T07:27:37.249Z,5.83
2022-11-03T07:30:10.280Z,5.96
2022-11-03T07:32:39.200Z,6.06
2022-11-03T07:36:14.356Z,6.22
2022-11-03T07:38:42.508Z,6.36
2022-11-03T07:41:18.978Z,6.46
2022-11-03T07:43:58.531Z,6.52
2022-11-03T07:46:27.439Z,6.59
2022-11-03T07:48:58.601Z,6.71
2022-11-03T07:51:53.997Z,6.84
2022-11-03T07:54:34.074Z,7.00
2022-11-03T07:57:23.015Z,7.17
2022-11-03T08:00:21.460Z,7.40
2022-11-03T08:03:01.963Z,7.66
2022-11-03T08:05:30.125Z,7.89
2022-11-03T08:07:58.327Z,8.09
2022-11-03T08:10:27.695Z,8.28
2022-11-03T08:12:55.791Z,8.44
2022-11-03T08:15:23.786Z,8.59
2022-11-03T08:17:55.999Z,8.72
2022-11-03T08:20:28.710Z,8.84
2022-11-03T08:23:20.103Z,8.99
2022-11-03T08:25:59.386Z,9.15
2022-11-03T08:28:30.391Z,9.27
2022-11-03T08:31:08.022Z,9.41
2022-11-03T08:33:41.158Z,9.53
2022-11-03T08:36:10.256Z,9.64
2022-11-03T08:38:38.502Z,9.74
2022-11-03T08:41:26.779Z,9.85
2022-11-03T08:43:55.164Z,9.98
2022-11-03T08:46:23.303Z,10.10
2022-11-03T08:48:57.306Z,10.21
2022-11-03T08:51:25.330Z,10.33
2022-11-03T08:53:55.974Z,10.45
2022-11-03T08:56:24.263Z,10.53
2022-11-03T08:58:52.220Z,10.60
2022-11-03T09:01:23.064Z,10.63
2022-11-03T09:03:52.129Z,10.62
2022-11-03T09:06:20.460Z,10.63
2022-11-03T09:11:38.859Z,10.63
2022-11-03T09:14:07.138Z,10.68
2022-11-03T09:16:36.576Z,10.78
2022-11-03T09:19:07.550Z,10.90
2022-11-03T09:21:39.792Z,11.02
2022-11-03T09:24:11.848Z,11.17
2022-11-03T09:26:42.046Z,11.32
2022-11-03T09:29:12.397Z,11.45
2022-11-03T09:31:49.363Z,11.56
2022-11-03T09:34:43.332Z,11.64
2022-11-03T09:37:16.434Z,11.77
2022-11-03T09:39:44.678Z,11.91
2022-11-03T09:42:12.965Z,12.04
2022-11-03T09:44:41.545Z,12.17
2022-11-03T09:47:27.351Z,12.29
2022-11-03T09:49:57.753Z,12.39
2022-11-03T09:52:31.339Z,12.56
2022-11-03T09:55:02.237Z,12.71
2022-11-03T09:57:30.981Z,12.85
2022-11-03T10:00:07.950Z,12.97
2022-11-03T10:02:42.895Z,13.03
2022-11-03T10:05:31.378Z,13.11
2022-11-03T10:12:04.004Z,13.46
2022-11-03T10:14:38.770Z,13.53
2022-11-03T10:17:41.737Z,13.54
2022-11-03T10:20:48.618Z,13.56
2022-11-03T10:23:35.337Z,13.54
2022-11-03T10:26:35.376Z,13.62
2022-11-03T10:29:24.306Z,13.78
2022-11-03T10:32:06.375Z,13.89
2022-11-03T10:34:45.837Z,14.06
2022-11-03T10:37:45.193Z,14.23
2022-11-03T10:40:47.667Z,14.33
2022-11-03T10:43:27.715Z,14.38
2022-11-03T10:49:18.964Z,14.35
2022-11-03T10:51:50.808Z,14.35
2022-11-03T10:54:26.338Z,14.32
2022-11-03T10:56:54.900Z,14.29
2022-11-03T10:59:34.592Z,14.26
2022-11-03T11:02:30.904Z,14.21
2022-11-03T11:05:01.992Z,14.24
2022-11-03T11:07:39.923Z,14.31
2022-11-03T11:10:21.763Z,14.31
2022-11-03T11:13:21.415Z,14.25
2022-11-03T11:15:59.160Z,14.19
2022-11-03T11:18:29.972Z,14.12
2022-11-03T11:21:18.841Z,13.99
2022-11-03T11:23:48.558Z,13.85
2022-11-03T11:26:26.433Z,13.78
2022-11-03T11:29:09.541Z,13.74
2022-11-03T11:31:44.820Z,13.68
2022-11-03T11:34:19.252Z,13.63
2022-11-03T11:36:59.590Z,13.57
2022-11-03T11:39:30.696Z,13.53
2022-11-03T11:42:23.023Z,13.51
2022-11-03T11:45:02.493Z,13.50
2022-11-03T11:47:48.781Z,13.52
2022-11-03T11:50:29.077Z,13.55
2022-11-03T11:53:10.319Z,13.50
2022-11-03T11:56:01.007Z,13.46
2022-11-03T11:58:53.910Z,13.44
2022-11-03T12:01:34.785Z,13.44
2022-11-03T12:06:47.634Z,13.42
2022-11-03T12:09:21.017Z,13.42
2022-11-03T12:12:05.331Z,13.40
2022-11-03T12:14:38.667Z,13.37
2022-11-03T12:17:18.567Z,13.37
2022-11-03T12:19:56.884Z,13.35
2022-11-03T12:22:27.775Z,13.37
2022-11-03T12:25:03.451Z,13.40
2022-11-03T12:27:33.537Z,13.39
2022-11-03T12:30:25.312Z,13.38
2022-11-03T12:32:59.986Z,13.36
2022-11-03T12:35:28.091Z,13.40
2022-11-03T12:37:56.164Z,13.44
2022-11-03T12:40:33.927Z,13.46
2022-11-03T12:43:06.496Z,13.46
2022-11-03T12:45:38.533Z,13.46
2022-11-03T12:48:08.243Z,13.46
2022-11-03T12:50:38.816Z,13.48
2022-11-03T12:53:07.453Z,13.50
2022-11-03T12:55:37.228Z,13.50
2022-11-03T12:58:15.467Z,13.51
2022-11-03T13:01:39.132Z,13.51
2022-11-03T13:03:40.157Z,13.50
2022-11-03T13:06:09.804Z,13.51
2022-11-03T13:08:37.801Z,13.51
2022-11-03T13:11:25.834Z,13.48
2022-11-03T13:13:56.636Z,13.45
2022-11-03T13:16:32.797Z,13.46
2022-11-03T13:19:03.002Z,13.44
2022-11-03T13:21:31.468Z,13.39
2022-11-03T13:23:59.398Z,13.33
2022-11-03T13:27:02.456Z,13.29
2022-11-03T13:29:39.067Z,13.25
2022-11-03T13:32:10.207Z,13.20
2022-11-03T13:35:02.548Z,13.19
2022-11-03T13:37:44.215Z,13.17
2022-11-03T13:40:35.759Z,13.18
2022-11-03T13:43:02.717Z,13.18
2022-11-03T13:45:33.220Z,13.19
2022-11-03T13:49:20.046Z,13.17
2022-11-03T13:51:22.556Z,13.16
2022-11-03T14:00:51.784Z,13.10
2022-11-03T14:06:33.001Z,13.04
2022-11-03T14:09:14.887Z,13.04
2022-11-03T14:12:31.747Z,13.03
2022-11-03T14:18:22.560Z,13.00
2022-11-03T14:19:46.004Z,12.91
2022-11-03T14:22:22.038Z,12.91
2022-11-03T14:25:25.450Z,12.90
2022-11-03T14:28:25.626Z,12.85
2022-11-03T14:34:37.845Z,12.77
2022-11-03T14:37:28.722Z,12.74
2022-11-03T14:40:06.411Z,12.71
2022-11-03T14:43:06.093Z,12.65
2022-11-03T14:45:42.530Z,12.57
2022-11-03T14:48:27.874Z,12.51
2022-11-03T14:50:56.709Z,12.45
2022-11-03T14:53:36.435Z,12.41
2022-11-03T14:56:09.462Z,12.35
2022-11-03T14:58:52.399Z,12.28
2022-11-03T15:01:26.371Z,12.22
2022-11-03T15:04:03.103Z,12.15
2022-11-03T15:06:31.143Z,12.08
2022-11-03T15:09:05.120Z,12.03
2022-11-03T15:11:36.207Z,11.97
2022-11-03T15:14:12.121Z,11.91
2022-11-03T15:16:45.628Z,11.84
2022-11-03T15:20:17.182Z,11.78
2022-11-03T15:26:06.402Z,11.67
2022-11-03T15:28:42.538Z,11.66
2022-11-03T15:31:15.747Z,11.64
2022-11-03T15:34:03.116Z,11.61
2022-11-03T15:38:02.536Z,11.54
2022-11-03T15:40:48.335Z,11.38
2022-11-03T15:43:41.661Z,11.27
2022-11-03T15:46:26.085Z,11.21
2022-11-03T15:49:12.543Z,11.13
2022-11-03T15:51:52.261Z,11.10
2022-11-03T15:54:22.793Z,11.08
2022-11-03T15:56:56.665Z,11.06
2022-11-03T15:59:39.736Z,11.04
2022-11-03T16:02:40.355Z,11.01
2022-11-03T16:05:11.012Z,10.95
2022-11-03T16:11:20.745Z,10.87
2022-11-03T16:14:05.934Z,10.83
2022-11-03T16:16:33.883Z,10.78
2022-11-03T16:19:07.368Z,10.72
2022-11-03T16:21:47.535Z,10.71
2022-11-03T16:24:51.977Z,10.68
2022-11-03T16:27:53.104Z,10.63
2022-11-03T16:30:54.737Z,10.59
2022-11-03T16:33:23.344Z,10.56
2022-11-03T16:35:54.197Z,10.57
2022-11-03T16:38:34.111Z,10.53
2022-11-03T16:41:18.294Z,10.48
2022-11-03T16:44:14.631Z,10.43
2022-11-03T16:46:55.784Z,10.38
2022-11-03T16:49:40.967Z,10.34
2022-11-03T16:52:11.810Z,10.32
2022-11-03T16:54:43.065Z,10.34
2022-11-03T16:57:12.018Z,10.33
2022-11-03T16:59:42.890Z,10.29
2022-11-03T17:07:19.366Z,10.01
2022-11-03T17:11:28.308Z,9.89
2022-11-03T17:14:15.771Z,9.81
2022-11-03T17:17:19.470Z,9.75
2022-11-03T17:20:46.361Z,9.69
2022-11-03T17:23:14.590Z,9.63
2022-11-03T17:25:45.730Z,9.60
2022-11-03T17:28:34.947Z,9.55
2022-11-03T17:34:13.947Z,9.43
2022-11-03T17:36:43.099Z,9.38
2022-11-03T17:39:34.748Z,9.39
2022-11-03T17:42:54.328Z,9.32
2022-11-03T17:45:33.760Z,9.24
2022-11-03T17:48:09.075Z,9.28
2022-11-03T17:50:42.288Z,9.26
2022-11-03T17:53:25.680Z,9.25
2022-11-03T17:58:59.413Z,9.19
2022-11-03T18:01:45.069Z,9.17
2022-11-03T18:04:22.598Z,9.16
2022-11-03T18:06:56.215Z,9.18
2022-11-03T18:09:32.831Z,9.23
2022-11-03T18:13:01.514Z,9.27
2022-11-03T18:16:03.991Z,9.31
2022-11-03T18:18:48.633Z,9.36
2022-11-03T18:21:37.239Z,9.39
2022-11-03T18:24:23.928Z,9.42
2022-11-03T18:27:25.147Z,9.43
2022-11-03T18:29:53.473Z,9.45
2022-11-03T18:32:21.378Z,9.49
2022-11-03T18:34:52.491Z,9.53
2022-11-03T18:37:22.048Z,9.58
2022-11-03T18:39:49.868Z,9.62
2022-11-03T18:42:46.034Z,9.65
2022-11-03T18:45:18.780Z,9.65
2022-11-03T18:47:51.884Z,9.65
2022-11-03T18:50:42.447Z,9.64
2022-11-03T18:53:25.312Z,9.64
2022-11-03T18:56:26.199Z,9.66
2022-11-03T18:59:11.806Z,9.70
2022-11-03T19:01:54.132Z,9.77
2022-11-03T19:04:33.129Z,9.82
2022-11-03T19:07:02.473Z,9.88
2022-11-03T19:09:30.141Z,9.92
2022-11-03T19:12:00.977Z,9.95
2022-11-03T19:14:32.643Z,9.97
2022-11-03T19:19:55.612Z,10.00
2022-11-03T19:22:23.463Z,10.03
2022-11-03T19:24:57.128Z,10.07
2022-11-03T19:27:36.051Z,10.10
2022-11-03T19:30:05.104Z,10.13
2022-11-03T19:32:39.840Z,10.15
2022-11-03T19:35:42.743Z,10.14
2022-11-03T19:38:19.320Z,10.12
2022-11-03T19:41:15.138Z,10.14
2022-11-03T19:44:03.152Z,10.16
2022-11-03T19:46:31.362Z,10.20
2022-11-03T19:49:03.933Z,10.25
2022-11-03T19:51:38.203Z,10.30
2022-11-03T19:54:15.182Z,10.33
2022-11-03T19:56:46.673Z,10.34
2022-11-03T19:59:22.082Z,10.34
2022-11-03T20:01:55.672Z,10.35
2022-11-03T20:04:26.050Z,10.37
2022-11-03T20:07:03.441Z,10.39
2022-11-03T20:09:32.690Z,10.42
2022-11-03T20:12:07.315Z,10.45
2022-11-03T20:14:36.617Z,10.46
2022-11-03T20:17:24.477Z,10.47
2022-11-03T20:19:52.828Z,10.45
2022-11-03T20:22:29.556Z,10.44
2022-11-03T20:25:03.807Z,10.43
2022-11-03T20:27:32.149Z,10.43
2022-11-03T20:30:00.845Z,10.45
2022-11-03T20:32:32.663Z,10.45
2022-11-03T20:35:54.173Z,10.45
2022-11-03T20:38:39.564Z,10.39
2022-11-03T20:41:14.671Z,10.35
2022-11-03T20:43:47.127Z,10.33
2022-11-03T20:46:24.097Z,10.32
2022-11-03T20:48:54.973Z,10.32
2022-11-03T20:51:54.356Z,10.32
2022-11-03T20:54:32.208Z,10.30
2022-11-03T20:57:15.304Z,10.30
2022-11-03T20:59:44.001Z,10.30
2022-11-03T21:02:13.144Z,10.29
2022-11-03T21:04:45.487Z,10.26
2022-11-03T21:07:13.078Z,10.23
2022-11-03T21:09:40.899Z,10.11
2022-11-03T21:12:15.047Z,10.09
2022-11-03T21:15:02.894Z,10.10
2022-11-03T21:17:49.775Z,10.00
2022-11-03T21:20:18.767Z,10.01
2022-11-03T21:22:52.324Z,10.04
2022-11-03T21:25:24.460Z,10.06
2022-11-03T21:28:05.677Z,10.07
2022-11-03T21:30:33.509Z,10.08
2022-11-03T21:33:01.236Z,10.08
2022-11-03T21:35:31.556Z,10.08
2022-11-03T21:38:02.829Z,10.07
2022-11-03T21:40:30.762Z,10.06
2022-11-03T21:43:17.631Z,10.06
2022-11-03T21:45:45.590Z,10.04
2022-11-03T21:48:32.569Z,10.01
2022-11-03T21:51:01.881Z,9.95
2022-11-03T21:53:36.212Z,9.92
2022-11-03T21:56:15.390Z,9.89
2022-11-03T21:58:49.711Z,9.88
2022-11-03T22:01:28.379Z,9.89
2022-11-03T22:04:03.099Z,9.89
2022-11-03T22:06:36.121Z,9.90
2022-11-03T22:09:33.045Z,9.93
2022-11-03T22:12:03.059Z,9.93
2022-11-03T22:14:51.732Z,9.96
2022-11-03T22:17:23.656Z,9.91
2022-11-03T22:20:12.852Z,9.91
2022-11-03T22:23:33.996Z,9.90
2022-11-03T22:26:21.271Z,9.87
2022-11-03T22:29:09.143Z,9.86
2022-11-03T22:31:42.214Z,9.88
2022-11-03T22:34:28.463Z,9.91
2022-11-03T22:36:56.019Z,9.92
2022-11-03T22:39:42.393Z,9.94
2022-11-03T22:42:30.835Z,9.93
2022-11-03T22:45:17.001Z,9.92
2022-11-03T22:47:44.686Z,9.93
2022-11-03T22:50:12.559Z,9.94
2022-11-03T22:52:40.280Z,9.95
2022-11-03T22:55:08.223Z,9.97
2022-11-03T22:57:35.699Z,9.98
2022-11-03T23:00:05.199Z,9.98
2022-11-03T23:02:32.932Z,9.97
2022-11-03T23:05:00.441Z,9.94
2022-11-03T23:07:31.208Z,9.92
2022-11-03T23:10:04.265Z,9.90
2022-11-03T23:12:31.802Z,9.89
2022-11-03T23:15:17.996Z,9.88
2022-11-03T23:18:04.106Z,9.87
2022-11-03T23:20:50.307Z,9.88
2022-11-03T23:23:36.502Z,9.91
2022-11-03T23:26:07.749Z,9.93
2022-11-03T23:28:35.301Z,9.96
2022-11-03T23:31:03.060Z,9.98
2022-11-03T23:33:31.281Z,10.00
2022-11-03T23:36:07.794Z,10.01
2022-11-03T23:38:37.109Z,9.99
2022-11-03T23:41:08.905Z,10.01
2022-11-03T23:43:37.104Z,10.03
2022-11-03T23:46:23.685Z,10.05
2022-11-03T23:48:52.192Z,10.06
2022-11-03T23:51:23.573Z,10.09
2022-11-03T23:53:52.586Z,10.11
2022-11-03T23:56:43.008Z,10.14
2022-11-03T23:59:12.546Z,10.14
